Time;durP1;ratioP1;P1;durP2;ratioP2;P2;SDS_P1;SDS_P2;PMS_P1;PMS_P2;Temp;Humidity;BMP_temperature;BMP_pressure;BME280_temperature;BME280_humidity;BME280_pressure;Samples;Min_cycle;Max_cycle;Signal;HPM_P1;HPM_P2
2023/09/05 00:02:17;;;;;;;5.30;3.40;;;20.00;99.90;;;;;;5075435;28;20496;-72
2023/09/05 00:04:44;;;;;;;6.30;3.45;;;20.00;99.90;;;;;;5064378;28;20054;-72
2023/09/05 00:07:10;;;;;;;4.53;3.40;;;19.90;99.90;;;;;;5073638;28;20036;-72
2023/09/05 00:09:36;;;;;;;8.68;3.42;;;19.90;99.90;;;;;;5080855;28;20041;-72
2023/09/05 00:12:03;;;;;;;4.35;3.40;;;19.80;99.90;;;;;;5069251;28;20013;-72
2023/09/05 00:14:29;;;;;;;9.63;3.58;;;19.70;99.90;;;;;;5077627;28;20385;-72
2023/09/05 00:16:55;;;;;;;4.20;3.20;;;19.70;99.90;;;;;;5068611;28;20020;-72
2023/09/05 00:19:20;;;;;;;5.63;4.00;;;19.70;99.90;;;;;;5070119;28;20021;-72
2023/09/05 00:21:46;;;;;;;9.13;3.58;;;19.80;99.90;;;;;;5074230;28;20025;-72
2023/09/05 00:24:31;;;;;;;7.00;3.60;;;19.80;99.90;;;;;;5074615;28;20020;-72
2023/09/05 00:27:06;;;;;;;5.15;3.40;;;19.70;99.90;;;;;;5072837;28;20024;-72
2023/09/05 00:29:31;;;;;;;7.18;4.07;;;19.70;99.90;;;;;;5072722;28;20032;-72
2023/09/05 00:31:59;;;;;;;4.70;3.53;;;19.60;99.90;;;;;;5073050;28;20039;-72
2023/09/05 00:34:29;;;;;;;12.45;3.80;;;19.30;99.90;;;;;;5068356;28;20711;-72
2023/09/05 00:36:55;;;;;;;5.28;4.28;;;19.30;99.90;;;;;;5072256;28;20471;-72
2023/09/05 00:39:21;;;;;;;6.07;3.45;;;19.20;99.90;;;;;;5068036;28;20036;-72
2023/09/05 00:41:47;;;;;;;4.57;4.00;;;19.20;99.90;;;;;;5078724;28;20084;-72
2023/09/05 00:44:14;;;;;;;5.60;3.60;;;19.20;99.90;;;;;;5072363;28;20390;-72
2023/09/05 00:46:45;;;;;;;4.55;3.78;;;19.30;99.90;;;;;;5072824;28;20020;-72
2023/09/05 00:49:12;;;;;;;7.85;4.10;;;19.30;99.90;;;;;;5078187;28;20396;-72
2023/09/05 00:51:42;;;;;;;6.13;4.00;;;19.20;99.90;;;;;;5065944;28;20024;-72
2023/09/05 00:54:10;;;;;;;6.60;4.07;;;19.10;99.90;;;;;;5072312;28;20095;-72
2023/09/05 00:56:35;;;;;;;6.07;4.18;;;18.90;99.90;;;;;;5071774;28;20028;-72
2023/09/05 00:59:03;;;;;;;7.65;3.97;;;18.90;99.90;;;;;;5073271;28;20033;-72
2023/09/05 01:01:29;;;;;;;4.88;4.35;;;18.70;99.90;;;;;;5079308;28;20032;-72
2023/09/05 01:03:57;;;;;;;5.68;3.90;;;18.70;99.90;;;;;;5072704;28;20025;-72
2023/09/05 01:06:31;;;;;;;7.40;4.18;;;18.70;99.90;;;;;;5064395;28;20047;-72
2023/09/05 01:09:18;;;;;;;5.30;3.90;;;18.60;99.90;;;;;;5070555;28;20040;-72
2023/09/05 01:11:44;;;;;;;7.03;3.80;;;18.60;99.90;;;;;;5067389;28;20013;-72
2023/09/05 01:14:10;;;;;;;8.35;3.60;;;18.60;99.90;;;;;;5072537;28;20040;-72
2023/09/05 01:16:44;;;;;;;3.95;3.45;;;18.70;99.90;;;;;;5074802;28;20016;-72
2023/09/05 01:19:14;;;;;;;4.68;3.80;;;18.50;99.90;;;;;;5068985;28;20107;-72
2023/09/05 01:22:04;;;;;;;5.65;4.20;;;18.60;99.90;;;;;;5073133;28;20020;-72
2023/09/05 01:24:32;;;;;;;5.53;4.50;;;18.80;99.90;;;;;;5073322;28;20431;-72
2023/09/05 01:26:58;;;;;;;7.25;3.55;;;18.80;99.90;;;;;;5072851;28;20158;-72
2023/09/05 01:29:29;;;;;;;5.22;3.58;;;18.90;99.90;;;;;;5066884;28;20062;-72
2023/09/05 01:31:58;;;;;;;3.55;3.25;;;18.80;99.90;;;;;;5079919;28;20020;-72
2023/09/05 01:34:25;;;;;;;5.90;4.13;;;18.70;99.90;;;;;;5073176;28;20043;-72
2023/09/05 01:36:50;;;;;;;6.15;3.80;;;18.70;99.90;;;;;;5069252;28;20025;-72
2023/09/05 01:39:16;;;;;;;4.05;3.67;;;18.70;99.90;;;;;;5075779;28;20596;-72
2023/09/05 01:41:42;;;;;;;4.72;3.83;;;18.70;99.90;;;;;;5069600;28;20466;-72
2023/09/05 01:44:08;;;;;;;6.85;3.88;;;18.70;99.90;;;;;;5069170;28;20016;-72
2023/09/05 01:46:34;;;;;;;4.32;3.88;;;18.70;99.90;;;;;;5078076;28;20016;-72
2023/09/05 01:49:00;;;;;;;4.75;3.45;;;18.70;99.90;;;;;;5074538;28;20528;-72
2023/09/05 01:51:25;;;;;;;5.93;3.75;;;18.60;99.90;;;;;;5079104;28;20021;-72
2023/09/05 01:53:51;;;;;;;8.65;4.28;;;18.60;99.90;;;;;;5074887;28;20333;-72
2023/09/05 01:56:17;;;;;;;3.97;3.60;;;18.50;99.90;;;;;;5082280;28;20017;-72
2023/09/05 01:58:43;;;;;;;8.90;4.35;;;18.50;99.90;;;;;;5079765;28;20059;-72
2023/09/05 02:01:08;;;;;;;15.65;4.32;;;18.50;99.90;;;;;;5076827;28;20052;-72
2023/09/05 02:03:34;;;;;;;6.38;3.97;;;18.50;99.90;;;;;;5080605;28;20443;-72
2023/09/05 02:05:59;;;;;;;10.05;4.05;;;18.60;99.90;;;;;;5071444;28;20482;-72
2023/09/05 02:08:25;;;;;;;4.47;4.07;;;18.50;99.90;;;;;;5072321;28;20381;-72
2023/09/05 02:10:51;;;;;;;7.10;4.47;;;18.50;99.90;;;;;;5075042;28;20511;-72
2023/09/05 02:13:17;;;;;;;7.88;4.40;;;18.50;99.90;;;;;;5074138;28;20427;-72
2023/09/05 02:15:43;;;;;;;6.78;3.67;;;18.50;99.90;;;;;;5076942;28;20025;-72
2023/09/05 02:18:11;;;;;;;6.53;4.55;;;18.40;99.90;;;;;;5073368;28;20023;-72
2023/09/05 02:20:40;;;;;;;4.90;4.43;;;18.30;99.90;;;;;;5079408;28;20485;-72
2023/09/05 02:23:06;;;;;;;5.05;4.57;;;18.30;99.90;;;;;;5071417;28;20020;-72
2023/09/05 02:25:32;;;;;;;6.03;5.20;;;18.40;99.90;;;;;;5082320;28;20032;-72
2023/09/05 02:27:58;;;;;;;6.65;4.25;;;18.30;99.90;;;;;;5071616;28;20017;-72
2023/09/05 02:30:25;;;;;;;6.57;4.60;;;18.10;99.90;;;;;;5071333;28;20500;-72
2023/09/05 02:32:52;;;;;;;5.60;4.53;;;18.10;99.90;;;;;;5076837;28;20124;-72
2023/09/05 02:35:20;;;;;;;5.55;4.22;;;18.00;99.90;;;;;;5071885;28;20024;-72
2023/09/05 02:37:49;;;;;;;5.20;4.70;;;18.00;99.90;;;;;;5078478;28;20063;-72
2023/09/05 02:40:15;;;;;;;6.85;4.60;;;18.10;99.90;;;;;;5070028;28;20028;-72
2023/09/05 02:42:40;;;;;;;4.70;4.07;;;18.10;99.90;;;;;;5079497;28;20032;-72
2023/09/05 02:45:07;;;;;;;5.57;4.50;;;18.00;99.90;;;;;;5073510;28;20473;-72
2023/09/05 02:47:32;;;;;;;5.75;4.50;;;18.00;99.90;;;;;;5071656;28;20140;-72
2023/09/05 02:49:58;;;;;;;8.10;5.25;;;17.90;99.90;;;;;;5079734;28;20156;-72
2023/09/05 02:52:24;;;;;;;7.65;5.10;;;17.90;99.90;;;;;;5073504;28;20035;-72
2023/09/05 02:54:50;;;;;;;9.98;4.53;;;17.90;99.90;;;;;;5068990;28;20020;-72
2023/09/05 02:57:16;;;;;;;8.52;5.43;;;18.00;99.90;;;;;;5078109;28;20150;-72
2023/09/05 02:59:42;;;;;;;6.03;5.40;;;18.00;99.90;;;;;;5071185;28;20112;-72
2023/09/05 03:02:08;;;;;;;10.02;5.00;;;17.90;99.90;;;;;;5078884;28;20074;-72
2023/09/05 03:04:33;;;;;;;9.20;4.97;;;18.00;99.90;;;;;;5072381;28;20036;-72
2023/09/05 03:07:01;;;;;;;7.88;5.32;;;17.90;99.90;;;;;;5073034;28;20102;-72
2023/09/05 03:09:27;;;;;;;6.70;5.80;;;17.90;99.90;;;;;;5069800;28;20060;-72
2023/09/05 03:11:52;;;;;;;5.80;5.20;;;17.90;99.90;;;;;;5067681;28;20096;-72
2023/09/05 03:14:18;;;;;;;7.97;5.50;;;17.90;99.90;;;;;;5078906;28;20598;-72
2023/09/05 03:16:44;;;;;;;7.07;5.00;;;17.90;99.90;;;;;;5075919;28;20032;-72
2023/09/05 03:19:11;;;;;;;6.65;5.75;;;17.90;99.90;;;;;;5067744;28;20480;-72
2023/09/05 03:21:38;;;;;;;6.10;5.05;;;17.90;99.90;;;;;;5077257;28;20383;-72
2023/09/05 03:24:04;;;;;;;6.00;5.45;;;17.90;99.90;;;;;;5068320;28;20028;-72
2023/09/05 03:26:30;;;;;;;9.23;5.47;;;17.90;99.90;;;;;;5065664;28;20509;-72
2023/09/05 03:28:56;;;;;;;7.03;5.75;;;17.90;99.90;;;;;;5067823;28;20041;-72
2023/09/05 03:31:24;;;;;;;9.20;6.05;;;17.90;99.90;;;;;;5079804;28;20020;-72
2023/09/05 03:33:50;;;;;;;5.82;5.30;;;17.90;99.90;;;;;;5068268;28;20021;-72
2023/09/05 03:36:16;;;;;;;6.18;4.85;;;17.90;99.90;;;;;;5077967;28;20016;-72
2023/09/05 03:38:41;;;;;;;6.72;5.13;;;17.80;99.90;;;;;;5085754;28;20040;-72
2023/09/05 03:41:08;;;;;;;5.93;5.43;;;17.80;99.90;;;;;;5068121;28;20082;-72
2023/09/05 03:43:34;;;;;;;6.13;5.30;;;17.70;99.90;;;;;;5073894;28;20046;-71
2023/09/05 03:46:00;;;;;;;9.00;5.47;;;17.70;99.90;;;;;;5079827;28;20461;-72
2023/09/05 03:48:26;;;;;;;5.95;5.00;;;17.70;99.90;;;;;;5070125;28;20389;-72
2023/09/05 03:50:52;;;;;;;11.73;5.25;;;17.70;99.90;;;;;;5080034;28;20024;-72
2023/09/05 03:53:17;;;;;;;7.07;5.30;;;17.60;99.90;;;;;;5067615;28;20385;-72
2023/09/05 03:55:44;;;;;;;7.63;5.25;;;17.70;99.90;;;;;;5079730;28;20032;-72
2023/09/05 03:58:11;;;;;;;6.38;4.20;;;17.70;99.90;;;;;;5069193;28;20029;-72
2023/09/05 04:00:36;;;;;;;6.05;5.30;;;17.70;99.90;;;;;;5074405;28;20032;-72
2023/09/05 04:03:02;;;;;;;5.88;5.32;;;17.70;99.90;;;;;;5080538;28;20036;-72
2023/09/05 04:05:29;;;;;;;8.70;5.43;;;17.70;99.90;;;;;;5069694;28;20024;-71
2023/09/05 04:07:54;;;;;;;10.63;5.55;;;17.70;99.90;;;;;;5077810;28;20028;-72
2023/09/05 04:10:21;;;;;;;10.38;5.03;;;17.70;99.90;;;;;;5067664;28;20409;-72
2023/09/05 04:12:46;;;;;;;6.43;5.05;;;17.70;99.90;;;;;;5073267;28;20469;-72
2023/09/05 04:15:19;;;;;;;6.88;5.30;;;17.60;99.90;;;;;;5080442;28;20027;-72
2023/09/05 04:17:45;;;;;;;5.63;5.03;;;17.60;99.90;;;;;;5068703;28;20024;-72
2023/09/05 04:20:13;;;;;;;8.95;5.70;;;17.60;99.90;;;;;;5063838;28;20028;-72
2023/09/05 04:22:38;;;;;;;11.45;4.97;;;17.60;99.90;;;;;;5071589;28;20036;-72
2023/09/05 04:25:06;;;;;;;6.85;4.80;;;17.60;99.90;;;;;;5068666;28;20016;-72
2023/09/05 04:27:32;;;;;;;8.63;5.72;;;17.50;99.90;;;;;;5074005;28;20051;-72
2023/09/05 04:29:58;;;;;;;8.50;4.80;;;17.40;99.90;;;;;;5066633;28;20489;-72
2023/09/05 04:32:32;;;;;;;9.85;5.90;;;17.40;99.90;;;;;;5073941;28;20028;-72
2023/09/05 04:35:01;;;;;;;7.30;5.03;;;17.40;99.90;;;;;;5071883;28;20024;-72
2023/09/05 04:37:27;;;;;;;5.57;4.95;;;17.40;99.90;;;;;;5069304;28;20056;-72
2023/09/05 04:39:54;;;;;;;5.85;5.13;;;17.40;99.90;;;;;;5068809;28;20039;-72
2023/09/05 04:42:20;;;;;;;8.63;5.63;;;17.30;99.90;;;;;;5073315;28;20021;-72
2023/09/05 04:44:46;;;;;;;7.90;5.13;;;17.30;99.90;;;;;;5073965;28;20028;-71
2023/09/05 04:47:21;;;;;;;7.85;4.63;;;17.30;99.90;;;;;;5070008;28;20070;-72
2023/09/05 04:49:55;;;;;;;5.28;4.45;;;17.30;99.90;;;;;;5067903;28;20059;-71
2023/09/05 04:52:23;;;;;;;6.18;5.10;;;17.30;99.90;;;;;;5070174;28;20482;-71
2023/09/05 04:54:49;;;;;;;6.72;4.75;;;17.30;99.90;;;;;;5077568;28;20032;-72
2023/09/05 04:57:16;;;;;;;7.88;5.43;;;17.30;99.90;;;;;;5076739;28;20023;-72
2023/09/05 04:59:47;;;;;;;6.45;5.43;;;17.30;99.90;;;;;;5072224;28;20461;-72
2023/09/05 05:02:16;;;;;;;8.73;5.70;;;17.30;99.90;;;;;;5070267;28;20024;-71
2023/09/05 05:04:45;;;;;;;6.78;5.53;;;17.30;99.90;;;;;;5064295;28;20033;-72
2023/09/05 05:07:11;;;;;;;7.68;5.55;;;17.30;99.90;;;;;;5072649;28;20484;-71
2023/09/05 05:09:40;;;;;;;10.60;5.53;;;17.20;99.90;;;;;;5079318;28;20043;-72
2023/09/05 05:12:07;;;;;;;6.72;5.20;;;17.20;99.90;;;;;;5070686;28;20058;-72
2023/09/05 05:14:33;;;;;;;9.35;5.63;;;17.20;99.90;;;;;;5067657;28;20037;-72
2023/09/05 05:16:59;;;;;;;6.65;5.30;;;17.20;99.90;;;;;;5076172;28;20487;-71
2023/09/05 05:19:25;;;;;;;7.38;5.72;;;17.20;99.90;;;;;;5078490;28;20370;-71
2023/09/05 05:21:52;;;;;;;5.68;5.05;;;17.20;99.90;;;;;;5064689;28;20469;-72
2023/09/05 05:24:18;;;;;;;10.18;5.30;;;17.10;99.90;;;;;;5072276;28;20029;-72
2023/09/05 05:26:45;;;;;;;7.40;5.28;;;17.10;99.90;;;;;;5071728;28;20020;-72
2023/09/05 05:29:11;;;;;;;7.95;5.15;;;17.00;99.90;;;;;;5078368;28;20043;-72
2023/09/05 05:31:37;;;;;;;11.90;4.97;;;17.10;99.90;;;;;;5074545;28;20036;-71
2023/09/05 05:34:03;;;;;;;11.77;5.50;;;17.10;99.90;;;;;;5071078;28;20024;-72
2023/09/05 05:36:29;;;;;;;11.75;5.13;;;17.10;99.90;;;;;;5080959;28;20366;-71
2023/09/05 05:38:59;;;;;;;7.28;5.60;;;17.20;99.90;;;;;;5067248;28;20029;-71
2023/09/05 05:41:25;;;;;;;8.77;5.95;;;17.20;99.90;;;;;;5076234;28;20024;-72
2023/09/05 05:43:51;;;;;;;5.70;5.05;;;17.20;99.90;;;;;;5071677;28;20024;-72
2023/09/05 05:46:18;;;;;;;7.97;5.07;;;17.10;99.90;;;;;;5075404;28;20112;-72
2023/09/05 05:48:44;;;;;;;6.38;5.47;;;17.00;99.90;;;;;;5071930;28;20016;-72
2023/09/05 05:51:11;;;;;;;6.80;6.07;;;17.10;99.90;;;;;;5068104;28;20070;-71
2023/09/05 05:53:37;;;;;;;8.32;4.93;;;17.10;99.90;;;;;;5074122;28;20021;-71
2023/09/05 05:56:03;;;;;;;6.85;5.00;;;17.00;99.90;;;;;;5070099;28;20033;-72
2023/09/05 05:58:29;;;;;;;5.97;4.85;;;17.00;99.90;;;;;;5073964;28;20032;-71
2023/09/05 06:00:55;;;;;;;7.78;6.05;;;17.10;99.90;;;;;;5070914;28;20025;-71
2023/09/05 06:03:21;;;;;;;7.43;5.68;;;17.10;99.90;;;;;;5077082;28;20420;-72
2023/09/05 06:05:48;;;;;;;9.70;5.28;;;17.10;99.90;;;;;;5070119;28;20024;-71
2023/09/05 06:08:14;;;;;;;13.90;5.90;;;17.20;99.90;;;;;;5074515;28;20037;-71
2023/09/05 06:10:42;;;;;;;8.90;5.07;;;17.20;99.90;;;;;;5074106;28;20073;-72
2023/09/05 06:13:09;;;;;;;7.32;5.10;;;17.20;99.90;;;;;;5076662;28;20090;-71
2023/09/05 06:15:35;;;;;;;10.90;6.57;;;17.20;99.90;;;;;;5068780;28;20024;-72
2023/09/05 06:18:01;;;;;;;7.97;5.40;;;17.30;99.90;;;;;;5079843;28;20081;-71
2023/09/05 06:20:28;;;;;;;8.35;6.00;;;17.20;99.90;;;;;;5070927;28;20025;-71
2023/09/05 06:22:54;;;;;;;7.05;6.07;;;17.30;99.90;;;;;;5072514;28;20699;-71
2023/09/05 06:25:21;;;;;;;8.48;6.22;;;17.30;99.90;;;;;;5073138;28;20074;-72
2023/09/05 06:27:47;;;;;;;7.47;5.72;;;17.30;99.90;;;;;;5070073;28;20038;-72
2023/09/05 06:30:13;;;;;;;9.65;6.28;;;17.30;99.90;;;;;;5075656;28;20119;-72
2023/09/05 06:32:40;;;;;;;6.97;5.60;;;17.30;99.90;;;;;;5074108;28;20028;-72
2023/09/05 06:35:06;;;;;;;8.18;5.93;;;17.30;99.90;;;;;;5073423;28;20484;-72
2023/09/05 06:37:34;;;;;;;6.97;6.07;;;17.40;99.90;;;;;;5078602;28;20067;-71
2023/09/05 06:40:00;;;;;;;6.03;5.40;;;17.40;99.90;;;;;;5069044;28;20032;-72
2023/09/05 06:42:26;;;;;;;9.27;6.75;;;17.40;99.90;;;;;;5078505;28;20023;-72
2023/09/05 06:44:52;;;;;;;6.38;5.30;;;17.30;99.90;;;;;;5071301;28;20040;-72
2023/09/05 06:47:18;;;;;;;9.68;5.57;;;17.30;99.90;;;;;;5079945;28;20027;-72
2023/09/05 06:49:44;;;;;;;8.38;5.63;;;17.40;99.90;;;;;;5073391;28;20388;-72
2023/09/05 06:52:10;;;;;;;10.35;6.10;;;17.40;99.90;;;;;;5067629;28;20029;-72
2023/09/05 06:54:35;;;;;;;8.85;6.07;;;17.50;99.90;;;;;;5072839;28;20036;-72
2023/09/05 06:57:01;;;;;;;7.00;5.13;;;17.50;99.90;;;;;;5073638;28;20032;-72
2023/09/05 06:59:27;;;;;;;6.10;4.68;;;17.50;99.90;;;;;;5078167;28;20021;-72
2023/09/05 07:01:54;;;;;;;7.63;5.20;;;17.60;99.90;;;;;;5082496;28;20021;-72
2023/09/05 07:04:19;;;;;;;5.88;4.47;;;17.60;99.90;;;;;;5073248;28;20021;-72
2023/09/05 07:06:47;;;;;;;5.57;4.88;;;17.60;99.90;;;;;;5076659;28;20028;-72
2023/09/05 07:09:14;;;;;;;7.00;4.97;;;17.70;99.90;;;;;;5075199;28;20127;-72
2023/09/05 07:11:40;;;;;;;6.68;4.68;;;17.70;99.90;;;;;;5076829;28;20017;-72
2023/09/05 07:14:06;;;;;;;5.43;4.80;;;17.80;99.90;;;;;;5076239;28;20028;-72
2023/09/05 07:16:32;;;;;;;5.40;4.85;;;17.90;99.90;;;;;;5083745;28;20043;-72
2023/09/05 07:18:57;;;;;;;5.93;4.78;;;18.00;99.90;;;;;;5070269;28;20024;-72
2023/09/05 07:21:23;;;;;;;7.15;4.40;;;18.10;99.90;;;;;;5064542;28;20021;-72
2023/09/05 07:23:49;;;;;;;7.20;4.85;;;18.10;99.90;;;;;;5071657;28;20499;-72
2023/09/05 07:26:14;;;;;;;9.20;4.85;;;18.20;99.90;;;;;;5068638;28;20037;-73
2023/09/05 07:28:41;;;;;;;9.52;4.55;;;18.30;99.90;;;;;;5074942;28;20024;-73
2023/09/05 07:31:06;;;;;;;12.77;5.63;;;18.40;99.90;;;;;;5076191;28;20032;-72
2023/09/05 07:33:33;;;;;;;6.63;3.95;;;18.40;99.90;;;;;;5078303;28;20036;-71
2023/09/05 07:35:59;;;;;;;5.40;3.55;;;18.50;99.90;;;;;;5069829;28;20032;-71
2023/09/05 07:38:25;;;;;;;4.53;3.97;;;18.60;99.90;;;;;;5076322;28;20389;-71
2023/09/05 07:41:04;;;;;;;9.13;4.13;;;18.60;99.90;;;;;;5071436;28;20109;-72
2023/09/05 07:43:32;;;;;;;4.93;3.88;;;18.80;99.90;;;;;;5077587;28;20558;-73
2023/09/05 07:45:58;;;;;;;6.22;3.45;;;18.90;99.90;;;;;;5071251;28;20064;-72
2023/09/05 07:48:24;;;;;;;5.15;4.20;;;18.90;99.90;;;;;;5078380;28;20024;-72
2023/09/05 07:50:50;;;;;;;4.75;3.88;;;19.00;99.90;;;;;;5073863;28;20521;-71
2023/09/05 07:53:16;;;;;;;8.40;3.95;;;19.20;99.90;;;;;;5072076;28;20013;-72
2023/09/05 07:55:42;;;;;;;4.30;3.67;;;19.30;99.90;;;;;;5075220;28;20032;-72
2023/09/05 07:58:10;;;;;;;4.03;3.40;;;19.40;99.90;;;;;;5064705;28;20044;-72
2023/09/05 08:00:36;;;;;;;5.68;3.58;;;19.40;99.90;;;;;;5076894;28;20040;-72
2023/09/05 08:03:03;;;;;;;4.85;3.22;;;19.50;99.90;;;;;;5075730;28;20066;-73
2023/09/05 08:05:29;;;;;;;6.65;3.65;;;19.70;99.90;;;;;;5077544;28;20032;-73
2023/09/05 08:07:55;;;;;;;8.73;3.67;;;19.90;99.90;;;;;;5072964;28;20181;-73
2023/09/05 08:10:20;;;;;;;5.88;3.35;;;20.00;99.90;;;;;;5071414;28;20138;-72
2023/09/05 08:12:46;;;;;;;7.50;3.45;;;20.30;99.90;;;;;;5073479;28;20362;-73
2023/09/05 08:15:12;;;;;;;7.00;3.42;;;20.40;99.90;;;;;;5074087;28;20071;-72
2023/09/05 08:17:38;;;;;;;7.82;3.67;;;20.50;99.90;;;;;;5073120;28;20017;-73
2023/09/05 08:20:05;;;;;;;7.47;3.30;;;20.50;99.90;;;;;;5078024;28;20382;-73
2023/09/05 08:22:32;;;;;;;4.68;3.80;;;20.60;99.90;;;;;;5068351;28;20031;-73
2023/09/05 08:24:58;;;;;;;5.30;3.65;;;20.80;99.90;;;;;;5065418;28;20526;-72
2023/09/05 08:27:28;;;;;;;3.45;3.15;;;21.00;99.90;;;;;;5063836;28;20028;-72
2023/09/05 08:29:57;;;;;;;5.47;3.05;;;21.10;99.90;;;;;;5070384;28;20069;-73
2023/09/05 08:32:24;;;;;;;5.90;3.40;;;21.20;99.90;;;;;;5071236;28;20020;-74
2023/09/05 08:34:50;;;;;;;6.78;3.25;;;21.30;99.90;;;;;;5072121;28;20056;-73
2023/09/05 08:37:16;;;;;;;4.40;3.03;;;21.50;99.90;;;;;;5066720;28;20550;-74
2023/09/05 08:39:42;;;;;;;9.45;3.83;;;21.60;99.90;;;;;;5074683;28;20111;-74
2023/09/05 08:42:08;;;;;;;4.70;3.00;;;21.70;99.90;;;;;;5072175;28;20100;-73
2023/09/05 08:44:40;;;;;;;4.85;3.50;;;21.90;99.90;;;;;;5073903;28;20024;-73
2023/09/05 08:47:06;;;;;;;4.82;2.90;;;21.90;99.90;;;;;;5072026;28;20056;-73
2023/09/05 08:49:32;;;;;;;4.38;3.30;;;21.90;99.90;;;;;;5066478;28;20121;-73
2023/09/05 08:52:02;;;;;;;8.60;3.20;;;21.90;99.90;;;;;;5071645;28;20086;-74
2023/09/05 08:54:29;;;;;;;4.40;3.25;;;22.10;99.90;;;;;;5071813;28;20089;-73
2023/09/05 08:56:56;;;;;;;4.20;2.53;;;22.20;99.90;;;;;;5074239;28;20142;-73
2023/09/05 08:59:24;;;;;;;12.65;2.75;;;22.40;99.90;;;;;;5071413;28;20020;-74
2023/09/05 09:01:50;;;;;;;3.78;2.80;;;22.50;99.90;;;;;;5073346;28;20114;-73
2023/09/05 09:04:16;;;;;;;3.38;2.92;;;22.60;99.90;;;;;;5065850;28;20616;-73
2023/09/05 09:06:43;;;;;;;3.88;2.90;;;22.80;99.90;;;;;;5073616;28;20051;-73
2023/09/05 09:09:36;;;;;;;3.65;3.33;;;22.80;99.90;;;;;;5071570;28;20053;-73
2023/09/05 09:12:03;;;;;;;6.47;3.30;;;23.00;99.90;;;;;;5057143;28;20055;-72
2023/09/05 09:14:29;;;;;;;4.90;2.72;;;23.10;99.90;;;;;;5069687;28;20008;-72
2023/09/05 09:16:59;;;;;;;3.20;2.90;;;23.20;99.90;;;;;;5076525;28;20040;-73
2023/09/05 09:19:26;;;;;;;6.57;2.80;;;23.30;99.90;;;;;;5070997;28;20024;-73
2023/09/05 09:21:52;;;;;;;3.42;3.03;;;23.40;99.90;;;;;;5066319;28;20067;-73
2023/09/05 09:24:19;;;;;;;5.05;3.00;;;23.50;99.90;;;;;;5068230;28;20064;-74
2023/09/05 09:26:45;;;;;;;4.70;3.20;;;23.70;99.90;;;;;;5078511;28;20111;-74
2023/09/05 09:29:11;;;;;;;4.20;3.03;;;23.90;99.90;;;;;;5070080;28;20120;-74
2023/09/05 09:31:40;;;;;;;4.22;2.95;;;24.00;99.90;;;;;;5071473;28;20077;-72
2023/09/05 09:34:07;;;;;;;4.40;2.80;;;24.10;99.90;;;;;;5071855;28;20036;-73
2023/09/05 09:36:34;;;;;;;2.95;2.40;;;24.30;99.90;;;;;;5070186;28;20021;-74
2023/09/05 09:39:10;;;;;;;2.75;2.40;;;24.50;99.90;;;;;;5078893;28;20031;-73
2023/09/05 09:41:43;;;;;;;2.70;2.47;;;24.70;99.90;;;;;;5068037;28;20017;-73
2023/09/05 09:44:09;;;;;;;3.88;2.60;;;24.80;99.90;;;;;;5071446;28;20384;-73
2023/09/05 09:46:35;;;;;;;3.33;2.63;;;24.90;99.90;;;;;;5080967;28;20099;-73
2023/09/05 09:49:06;;;;;;;5.60;2.55;;;25.10;99.90;;;;;;5073179;28;20104;-73
2023/09/05 09:51:34;;;;;;;3.17;2.83;;;25.20;99.90;;;;;;5070211;28;20192;-72
2023/09/05 09:54:06;;;;;;;3.42;2.78;;;25.40;99.90;;;;;;5072049;28;20017;-73
2023/09/05 09:56:33;;;;;;;2.97;2.50;;;25.50;99.90;;;;;;5074136;28;20024;-73
2023/09/05 09:59:00;;;;;;;3.33;2.70;;;25.60;99.90;;;;;;5069255;28;20516;-73
2023/09/05 10:01:26;;;;;;;12.48;3.47;;;25.70;99.90;;;;;;5066507;28;20114;-73
2023/09/05 10:03:53;;;;;;;3.47;2.75;;;25.80;99.90;;;;;;5076102;28;20066;-74
2023/09/05 10:06:20;;;;;;;4.95;2.90;;;25.90;99.90;;;;;;5077808;28;20027;-75
2023/09/05 10:08:47;;;;;;;4.00;2.95;;;26.00;99.90;;;;;;5068195;28;20025;-73
2023/09/05 10:11:17;;;;;;;5.68;2.80;;;26.20;99.90;;;;;;5074972;28;20024;-72
2023/09/05 10:13:46;;;;;;;4.43;2.58;;;26.30;99.90;;;;;;5073745;28;20024;-73
2023/09/05 10:16:12;;;;;;;4.50;2.42;;;26.40;99.90;;;;;;5078210;28;20051;-73
2023/09/05 10:18:41;;;;;;;5.13;2.53;;;26.50;99.90;;;;;;5072489;28;20028;-73
2023/09/05 10:21:08;;;;;;;4.68;2.42;;;26.70;99.90;;;;;;5076343;28;20012;-73
2023/09/05 10:23:36;;;;;;;3.78;2.45;;;26.80;99.90;;;;;;5076888;28;20158;-74
2023/09/05 10:26:05;;;;;;;2.85;2.40;;;26.90;99.90;;;;;;5067654;28;20020;-73
2023/09/05 10:28:32;;;;;;;4.70;3.22;;;27.00;99.90;;;;;;5081139;28;20028;-73
2023/09/05 10:31:07;;;;;;;6.82;2.70;;;27.00;99.90;;;;;;5071155;28;20032;-73
2023/09/05 10:33:35;;;;;;;7.18;2.78;;;27.20;99.90;;;;;;5074876;28;20028;-73
2023/09/05 10:36:02;;;;;;;4.53;2.22;;;27.20;99.90;;;;;;5066647;28;20066;-73
2023/09/05 10:38:30;;;;;;;8.18;3.95;;;27.30;99.90;;;;;;5072990;28;20016;-72
2023/09/05 10:40:55;;;;;;;3.30;2.80;;;27.40;99.90;;;;;;5072535;28;20480;-73
2023/09/05 10:43:22;;;;;;;4.15;3.25;;;27.40;99.90;;;;;;5071129;28;20032;-74
2023/09/05 10:45:58;;;;;;;3.83;2.97;;;27.60;99.90;;;;;;5072841;28;20020;-74
2023/09/05 10:48:37;;;;;;;4.05;2.55;;;27.60;99.90;;;;;;5069155;28;20464;-74
2023/09/05 10:51:07;;;;;;;4.72;2.58;;;27.70;99.90;;;;;;5060586;28;20032;-74
2023/09/05 10:53:38;;;;;;;6.35;2.70;;;27.90;99.90;;;;;;5081498;28;20361;-74
2023/09/05 10:56:04;;;;;;;2.55;2.30;;;28.00;99.90;;;;;;5072433;28;20024;-74
2023/09/05 10:58:45;;;;;;;4.15;2.70;;;28.00;99.90;;;;;;5073238;28;20048;-74
2023/09/05 11:01:30;;;;;;;9.20;2.65;;;28.10;99.90;;;;;;5059561;28;20064;-74
2023/09/05 11:03:59;;;;;;;4.28;2.30;;;28.20;99.90;;;;;;5066293;28;20031;-74
2023/09/05 11:06:25;;;;;;;6.22;2.70;;;28.20;99.90;;;;;;5064957;28;20160;-75
2023/09/05 11:09:04;;;;;;;5.25;2.50;;;28.30;99.90;;;;;;5066070;28;20519;-74
2023/09/05 11:11:30;;;;;;;7.57;2.90;;;28.40;99.90;;;;;;5067539;28;20021;-75
2023/09/05 11:13:57;;;;;;;2.75;2.45;;;28.50;99.90;;;;;;5076896;28;20465;-74
2023/09/05 11:16:24;;;;;;;7.25;3.00;;;28.60;99.90;;;;;;5072661;28;20465;-74
2023/09/05 11:18:56;;;;;;;4.03;2.38;;;28.70;99.90;;;;;;5067121;28;20028;-74
2023/09/05 11:21:24;;;;;;;2.42;2.22;;;28.70;99.90;;;;;;5063159;28;20036;-75
2023/09/05 11:23:54;;;;;;;4.22;2.20;;;28.80;99.90;;;;;;5082920;28;20110;-74
2023/09/05 11:26:20;;;;;;;5.18;2.50;;;28.80;99.90;;;;;;5074722;28;20024;-74
2023/09/05 11:28:48;;;;;;;6.32;2.50;;;28.90;99.90;;;;;;5080366;28;20031;-75
2023/09/05 11:31:15;;;;;;;5.28;2.42;;;28.90;99.90;;;;;;5069773;28;20605;-74
2023/09/05 11:33:41;;;;;;;6.57;2.47;;;29.00;99.90;;;;;;5070403;28;20020;-75
2023/09/05 11:36:07;;;;;;;2.72;2.40;;;29.10;99.90;;;;;;5078746;28;20449;-74
2023/09/05 11:38:50;;;;;;;5.70;2.38;;;29.20;99.90;;;;;;5073793;28;20017;-76
2023/09/05 11:41:16;;;;;;;;;;;29.20;99.90;;;;;;5072048;28;20032;-75
2023/09/05 11:43:47;;;;;;;3.17;2.10;;;29.20;99.90;;;;;;5074654;28;19915;-75
2023/09/05 11:46:14;;;;;;;4.07;2.42;;;29.10;99.90;;;;;;5064049;28;20037;-75
2023/09/05 11:48:42;;;;;;;6.53;2.83;;;29.10;99.90;;;;;;5059828;28;20470;-76
2023/09/05 11:51:09;;;;;;;2.65;2.25;;;29.20;99.90;;;;;;5078597;28;20524;-76
2023/09/05 11:53:36;;;;;;;4.00;2.35;;;29.20;99.90;;;;;;5073844;28;20027;-76
2023/09/05 11:56:03;;;;;;;4.53;2.20;;;29.20;99.90;;;;;;5073605;28;20024;-76
2023/09/05 11:58:30;;;;;;;4.38;2.58;;;29.20;99.90;;;;;;5071341;28;20027;-76
2023/09/05 12:00:57;;;;;;;2.83;2.45;;;29.30;99.90;;;;;;5070667;28;20063;-75
2023/09/05 12:03:23;;;;;;;4.18;2.63;;;29.30;99.90;;;;;;5086590;28;20020;-76
2023/09/05 12:05:51;;;;;;;4.00;2.88;;;29.40;99.90;;;;;;5074452;28;20056;-76
2023/09/05 12:08:21;;;;;;;3.88;2.50;;;29.40;99.90;;;;;;5071494;28;20101;-75
2023/09/05 12:10:51;;;;;;;6.53;2.33;;;29.40;99.90;;;;;;5069531;28;20114;-76
2023/09/05 12:13:35;;;;;;;2.95;2.67;;;29.50;99.90;;;;;;5073946;28;20129;-76
2023/09/05 12:16:00;;;;;;;3.08;2.70;;;29.50;99.90;;;;;;5079960;28;20485;-76
2023/09/05 12:18:27;;;;;;;2.75;2.00;;;29.60;99.90;;;;;;5076507;28;20058;-76
2023/09/05 12:20:57;;;;;;;4.63;2.35;;;29.70;99.90;;;;;;5078824;28;20031;-76
2023/09/05 12:23:27;;;;;;;6.47;2.78;;;29.70;99.90;;;;;;5068166;28;20024;-76
2023/09/05 12:25:56;;;;;;;2.90;2.33;;;29.80;99.90;;;;;;5081598;28;20025;-76
2023/09/05 12:28:24;;;;;;;4.75;2.42;;;29.80;99.90;;;;;;5073647;28;20024;-76
2023/09/05 12:30:53;;;;;;;4.57;2.60;;;29.80;99.90;;;;;;5072644;28;20046;-75
2023/09/05 12:33:20;;;;;;;7.35;2.55;;;29.80;99.90;;;;;;5069925;28;20492;-76
2023/09/05 12:35:46;;;;;;;4.57;2.10;;;29.80;99.90;;;;;;5079085;28;20024;-74
2023/09/05 12:38:14;;;;;;;3.38;2.55;;;29.90;99.90;;;;;;5071056;28;20036;-75
2023/09/05 12:40:42;;;;;;;3.47;1.90;;;29.90;99.90;;;;;;5071916;28;20027;-75
2023/09/05 12:43:08;;;;;;;5.30;2.45;;;30.00;99.90;;;;;;5076971;28;20476;-74
2023/09/05 12:45:33;;;;;;;5.15;2.35;;;30.00;99.90;;;;;;5074019;28;20027;-75
2023/09/05 12:48:00;;;;;;;2.40;1.98;;;30.10;99.90;;;;;;5078045;28;20030;-74